Terminal Aerodrome Forecast
Issued by NWS

Home | Current Version | Previous Version | Text Only | Print | Product List | Glossary Off
Versions: 1 2 3 4 5 6 7 8 9 10 11 12 13 14 15 16 17 18 19 20

959
FTUS43 KMPX 211610 AAC
TAFRNH
TAF AMD
KRNH 211610Z 2116/2212 18006KT 1/4SM FG OVC001
      TEMPO 2116/2117 19007KT 1 1/2SM BR SCT005
     FM211700 19011KT P6SM SCT250
     FM220000 19005KT P6SM SCT250=

USA.gov is the U.S. government's official web portal to all federal, state and local government web resources and services.